Time;durP1;ratioP1;P1;durP2;ratioP2;P2;SDS_P1;SDS_P2;PMS_P1;PMS_P2;Temp;Humidity;BMP_temperature;BMP_pressure;BME280_temperature;BME280_humidity;BME280_pressure;Samples;Min_cycle;Max_cycle;Signal;HPM_P1;HPM_P2
2022/10/26 00:00:27;;;;;;;38.17;16.88;;;;;;;-142.57;100.00;61215.63;4900169;29;20029;-87
2022/10/26 00:02:54;;;;;;;32.45;16.50;;;;;;;-142.57;100.00;61215.63;4899713;29;20486;-89
2022/10/26 00:05:20;;;;;;;39.05;16.77;;;;;;;-142.57;100.00;61215.63;4900943;29;20055;-89
2022/10/26 00:07:46;;;;;;;32.25;15.93;;;;;;;-142.57;100.00;61215.63;4899971;29;20119;-86
2022/10/26 00:10:12;;;;;;;30.73;15.88;;;;;;;-142.57;100.00;61215.63;4898362;29;20060;-88
2022/10/26 00:12:38;;;;;;;35.53;16.63;;;;;;;-142.57;100.00;61215.63;4899047;29;20047;-87
2022/10/26 00:15:04;;;;;;;33.00;16.13;;;;;;;-142.57;100.00;61215.63;4899913;29;20047;-87
2022/10/26 00:17:30;;;;;;;35.38;16.65;;;;;;;-142.57;100.00;61215.63;4900365;29;20047;-87
2022/10/26 00:19:56;;;;;;;36.17;17.42;;;;;;;-142.57;100.00;61215.63;4901308;29;20550;-88
2022/10/26 00:22:22;;;;;;;37.20;14.68;;;;;;;-142.57;100.00;61215.63;4911462;29;20040;-87
2022/10/26 00:24:47;;;;;;;33.03;16.27;;;;;;;-142.57;100.00;61215.63;4919159;29;20131;-88
2022/10/26 00:27:13;;;;;;;33.83;14.25;;;;;;;-142.57;100.00;61215.63;4926892;29;20051;-85
2022/10/26 00:29:39;;;;;;;28.55;14.90;;;;;;;-142.57;100.00;61215.63;4935107;29;20066;-87
2022/10/26 00:32:05;;;;;;;29.52;14.68;;;;;;;-142.57;100.00;61215.63;4932377;29;20092;-87
2022/10/26 00:34:31;;;;;;;30.13;13.48;;;;;;;-142.57;100.00;61215.63;4917639;29;20050;-88
2022/10/26 00:36:56;;;;;;;33.33;15.05;;;;;;;-142.57;100.00;61215.63;4918644;29;20508;-88
2022/10/26 00:39:22;;;;;;;26.75;14.75;;;;;;;-142.57;100.00;61215.63;4918209;29;20040;-87
2022/10/26 00:41:47;;;;;;;29.67;14.63;;;;;;;-142.57;100.00;61215.63;4918399;29;20120;-89
2022/10/26 00:44:47;;;;;;;28.90;14.00;;;;;;;-142.57;100.00;61215.63;4918106;29;20091;-87
2022/10/26 00:47:24;;;;;;;35.33;14.65;;;;;;;-142.57;100.00;61215.63;4918269;29;20195;-86
2022/10/26 00:49:53;;;;;;;31.20;15.10;;;;;;;-142.57;100.00;61215.63;4919019;29;20047;-88
2022/10/26 00:52:20;;;;;;;31.90;14.07;;;;;;;-142.57;100.00;61215.63;4918698;29;20036;-87
2022/10/26 00:54:45;;;;;;;32.03;15.55;;;;;;;-142.57;100.00;61215.63;4917348;29;20088;-87
2022/10/26 00:57:14;;;;;;;36.92;15.88;;;;;;;-142.57;100.00;61215.63;4917876;29;20032;-89
2022/10/26 00:59:41;;;;;;;32.30;15.68;;;;;;;-142.57;100.00;61215.63;4917861;29;20103;-88
2022/10/26 01:02:07;;;;;;;38.50;17.13;;;;;;;-142.57;100.00;61215.63;4917846;29;20039;-88
2022/10/26 01:04:33;;;;;;;35.25;17.35;;;;;;;-142.57;100.00;61215.63;4916341;29;20040;-87
2022/10/26 01:07:03;;;;;;;39.33;17.17;;;;;;;-142.57;100.00;61215.63;4918120;29;20084;-86
2022/10/26 01:09:31;;;;;;;31.98;16.27;;;;;;;-142.57;100.00;61215.63;4918199;29;20079;-87
2022/10/26 01:11:56;;;;;;;31.40;16.42;;;;;;;-142.57;100.00;61215.63;4917808;29;20032;-88
2022/10/26 01:14:23;;;;;;;38.45;17.88;;;;;;;-142.57;100.00;61215.63;4917811;29;20047;-85
2022/10/26 01:16:55;;;;;;;36.17;17.55;;;;;;;-142.57;100.00;61215.63;4916255;29;20048;-87
2022/10/26 01:19:44;;;;;;;32.40;17.50;;;;;;;-142.57;100.00;61215.63;4917933;29;20028;-87
2022/10/26 01:22:25;;;;;;;35.45;18.02;;;;;;;-142.57;100.00;61215.63;4922221;29;20051;-88
2022/10/26 01:25:02;;;;;;;35.35;17.48;;;;;;;-142.57;100.00;61215.63;4921680;29;20047;-86
2022/10/26 01:27:38;;;;;;;33.80;17.85;;;;;;;-142.57;100.00;61215.63;4920568;29;20040;-87
2022/10/26 01:30:32;;;;;;;38.40;18.83;;;;;;;-142.57;100.00;61215.63;4921738;29;20107;-87
2022/10/26 01:33:24;;;;;;;35.70;18.30;;;;;;;-142.57;100.00;61215.63;4921359;29;20044;-88
2022/10/26 01:36:23;;;;;;;40.67;19.07;;;;;;;-142.57;100.00;61215.63;4921719;29;20034;-88
2022/10/26 01:39:03;;;;;;;33.55;18.92;;;;;;;-142.57;100.00;61215.63;4921678;29;20036;-87
2022/10/26 01:41:35;;;;;;;41.42;19.50;;;;;;;-142.57;100.00;61215.63;4921339;29;20195;-87
2022/10/26 01:44:06;;;;;;;39.83;19.48;;;;;;;-142.57;100.00;61215.63;4921245;29;20048;-86
2022/10/26 01:46:38;;;;;;;38.03;19.07;;;;;;;-142.57;100.00;61215.63;4921071;29;20044;-88
2022/10/26 01:49:10;;;;;;;38.92;18.77;;;;;;;-142.57;100.00;61215.63;4921209;29;20280;-87
2022/10/26 01:51:39;;;;;;;40.08;20.58;;;;;;;-142.57;100.00;61215.63;4922095;29;20040;-88
2022/10/26 01:54:04;;;;;;;42.67;20.15;;;;;;;-142.57;100.00;61215.63;4920910;29;20435;-86
2022/10/26 01:56:35;;;;;;;40.30;20.38;;;;;;;-142.57;100.00;61215.63;4920805;29;20039;-87
2022/10/26 01:59:21;;;;;;;45.45;21.52;;;;;;;-142.57;100.00;61215.63;4920845;29;20040;-86
2022/10/26 02:01:47;;;;;;;42.72;21.50;;;;;;;-142.57;100.00;61215.63;4920672;29;20048;-85
2022/10/26 02:04:24;;;;;;;36.92;20.45;;;;;;;-142.57;100.00;61215.63;4920189;29;20028;-87
2022/10/26 02:06:53;;;;;;;41.40;20.13;;;;;;;-142.57;100.00;61215.63;4920689;29;20040;-86
2022/10/26 02:09:44;;;;;;;43.55;21.42;;;;;;;-142.57;100.00;61215.63;4920760;29;20032;-87
2022/10/26 02:12:20;;;;;;;43.65;21.27;;;;;;;-142.57;100.00;61215.63;4920703;29;20036;-86
2022/10/26 02:14:53;;;;;;;47.25;21.38;;;;;;;-142.57;100.00;61215.63;4920364;29;20494;-87
2022/10/26 02:17:55;;;;;;;51.80;21.90;;;;;;;-142.57;100.00;61215.63;4920456;29;20117;-86
2022/10/26 02:20:26;;;;;;;45.27;20.77;;;;;;;-142.57;100.00;61215.63;4914811;29;20072;-87
2022/10/26 02:22:54;;;;;;;38.40;20.17;;;;;;;-142.57;100.00;61215.63;4920480;29;20045;-87
2022/10/26 02:25:24;;;;;;;35.15;19.70;;;;;;;-142.57;100.00;61215.63;4919271;29;20076;-88
2022/10/26 02:27:56;;;;;;;39.55;20.35;;;;;;;-142.57;100.00;61215.63;4920399;29;20494;-86
2022/10/26 02:30:22;;;;;;;41.35;20.95;;;;;;;-142.57;100.00;61215.63;4920339;29;20515;-88
2022/10/26 02:32:51;;;;;;;38.90;20.58;;;;;;;-142.57;100.00;61215.63;4919457;29;20115;-86
2022/10/26 02:35:21;;;;;;;38.33;19.48;;;;;;;-142.57;100.00;61215.63;4919831;29;20560;-87
2022/10/26 02:37:47;;;;;;;47.63;20.73;;;;;;;-142.57;100.00;61215.63;4903317;29;20036;-88
2022/10/26 02:40:17;;;;;;;46.92;21.38;;;;;;;-142.57;100.00;61215.63;4920265;29;20035;-88
2022/10/26 02:42:45;;;;;;;46.03;21.27;;;;;;;-142.57;100.00;61215.63;4920101;29;20036;-85
2022/10/26 02:45:16;;;;;;;47.20;21.25;;;;;;;-142.57;100.00;61215.63;4920103;29;20092;-89
2022/10/26 02:47:42;;;;;;;42.22;20.70;;;;;;;-142.57;100.00;61215.63;4920414;29;20047;-86
2022/10/26 02:50:08;;;;;;;41.25;21.58;;;;;;;-142.57;100.00;61215.63;4920466;29;20036;-87
2022/10/26 02:53:01;;;;;;;39.60;21.13;;;;;;;-142.57;100.00;61215.63;4921242;29;20036;-87
2022/10/26 02:55:34;;;;;;;46.25;21.00;;;;;;;-142.57;100.00;61215.63;4920809;29;20485;-87
2022/10/26 02:58:08;;;;;;;47.67;22.58;;;;;;;-142.57;100.00;61215.63;4918820;29;20074;-88
2022/10/26 03:00:34;;;;;;;44.38;22.35;;;;;;;-142.57;100.00;61215.63;4925246;29;20056;-86
2022/10/26 03:03:03;;;;;;;44.63;20.42;;;;;;;-142.57;100.00;61215.63;4920418;29;20478;-87
2022/10/26 03:05:35;;;;;;;45.30;20.67;;;;;;;-142.57;100.00;61215.63;4918863;29;20058;-86
2022/10/26 03:08:02;;;;;;;46.88;20.13;;;;;;;-142.57;100.00;61215.63;4922748;29;20044;-86
2022/10/26 03:10:27;;;;;;;49.70;21.27;;;;;;;-142.57;100.00;61215.63;4928386;29;20043;-87
2022/10/26 03:12:53;;;;;;;48.30;20.55;;;;;;;-142.57;100.00;61215.63;4932503;29;20036;-88
2022/10/26 03:15:19;;;;;;;42.35;20.73;;;;;;;-142.57;100.00;61215.63;4939703;29;20040;-86
2022/10/26 03:18:05;;;;;;;46.42;21.08;;;;;;;-142.57;100.00;61215.63;4933365;29;20103;-86
2022/10/26 03:20:31;;;;;;;41.63;19.25;;;;;;;-142.57;100.00;61215.63;4937449;29;20031;-88
2022/10/26 03:22:56;;;;;;;48.67;20.02;;;;;;;-142.57;100.00;61215.63;4942689;29;20028;-88
2022/10/26 03:25:25;;;;;;;37.63;19.40;;;;;;;-142.57;100.00;61215.63;4942293;29;20032;-86
2022/10/26 03:27:59;;;;;;;41.88;19.58;;;;;;;-142.57;100.00;61215.63;4940107;29;20096;-87
2022/10/26 03:30:26;;;;;;;43.72;19.55;;;;;;;-142.57;100.00;61215.63;4921028;29;20043;-88
2022/10/26 03:32:52;;;;;;;43.90;20.08;;;;;;;-142.57;100.00;61215.63;4919997;29;20074;-88
2022/10/26 03:35:17;;;;;;;40.65;20.73;;;;;;;-142.57;100.00;61215.63;4918356;29;20051;-87
2022/10/26 03:37:43;;;;;;;46.45;19.90;;;;;;;-142.57;100.00;61215.63;4917958;29;20048;-87
2022/10/26 03:40:09;;;;;;;46.22;21.42;;;;;;;-142.57;100.00;61215.63;4919373;29;20032;-86
2022/10/26 03:42:35;;;;;;;39.63;19.38;;;;;;;-142.57;100.00;61215.63;4919437;29;20363;-86
2022/10/26 03:45:01;;;;;;;44.70;19.80;;;;;;;-142.57;100.00;61215.63;4918902;29;20036;-87
2022/10/26 03:47:27;;;;;;;44.85;20.60;;;;;;;-142.57;100.00;61215.63;4918780;29;20040;-86
2022/10/26 03:49:52;;;;;;;50.08;19.67;;;;;;;-142.57;100.00;61215.63;4902376;29;20032;-86
2022/10/26 03:52:18;;;;;;;40.40;19.58;;;;;;;-142.57;100.00;61215.63;4919665;29;20036;-88
2022/10/26 03:54:43;;;;;;;38.38;19.65;;;;;;;-142.57;100.00;61215.63;4919179;29;20118;-87
2022/10/26 03:57:09;;;;;;;44.72;20.60;;;;;;;-142.57;100.00;61215.63;4918689;29;20036;-86
2022/10/26 03:59:34;;;;;;;40.58;20.13;;;;;;;-142.57;100.00;61215.63;4918940;29;20040;-87
2022/10/26 04:02:00;;;;;;;45.58;20.02;;;;;;;-142.57;100.00;61215.63;4918946;29;20096;-86
2022/10/26 04:04:25;;;;;;;51.05;20.48;;;;;;;-142.57;100.00;61215.63;4918577;29;20043;-87
2022/10/26 04:06:51;;;;;;;35.60;18.45;;;;;;;-142.57;100.00;61215.63;4919592;29;20040;-88
2022/10/26 04:12:41;;;;;;;36.60;18.70;;;;;;;-142.57;100.00;61215.63;4909814;29;20405;-88
2022/10/26 04:15:07;;;;;;;38.85;17.98;;;;;;;-142.57;100.00;61215.63;4921632;29;20051;-87
2022/10/26 04:17:33;;;;;;;37.67;18.20;;;;;;;-142.57;100.00;61215.63;4901266;29;20052;-85
2022/10/26 04:19:58;;;;;;;34.90;18.33;;;;;;;-142.57;100.00;61215.63;4879604;29;20033;-88
2022/10/26 04:22:24;;;;;;;37.38;17.55;;;;;;;-142.57;100.00;61215.63;4880236;29;20061;-87
2022/10/26 04:24:49;;;;;;;41.15;18.35;;;;;;;-142.57;100.00;61215.63;4881108;29;20045;-88
2022/10/26 04:27:17;;;;;;;45.25;17.92;;;;;;;-142.57;100.00;61215.63;4884444;29;20033;-90
2022/10/26 04:29:46;;;;;;;44.13;18.65;;;;;;;-142.57;100.00;61215.63;4885975;29;20040;-87
2022/10/26 04:32:11;;;;;;;38.83;17.83;;;;;;;-142.57;100.00;61215.63;4867304;29;20372;-87
2022/10/26 04:34:37;;;;;;;31.42;16.77;;;;;;;-142.57;100.00;61215.63;4885319;29;20073;-88
2022/10/26 04:37:02;;;;;;;35.78;17.17;;;;;;;-142.57;100.00;61215.63;4883577;29;20044;-87
2022/10/26 04:39:28;;;;;;;30.85;15.80;;;;;;;-142.57;100.00;61215.63;4884747;29;20041;-88
2022/10/26 04:41:54;;;;;;;38.90;16.05;;;;;;;-142.57;100.00;61215.63;4882548;29;20037;-88
2022/10/26 04:44:19;;;;;;;29.02;15.52;;;;;;;-142.57;100.00;61215.63;4882521;29;20060;-87
2022/10/26 04:46:45;;;;;;;33.53;15.77;;;;;;;-142.57;100.00;61215.63;4882021;29;20045;-88
2022/10/26 04:49:11;;;;;;;38.50;16.75;;;;;;;-142.57;100.00;61215.63;4883737;29;20089;-87
2022/10/26 04:51:36;;;;;;;37.90;16.30;;;;;;;-142.57;100.00;61215.63;4884417;29;20049;-88
2022/10/26 04:54:02;;;;;;;32.90;15.75;;;;;;;-142.57;100.00;61215.63;4896619;29;20155;-85
2022/10/26 04:56:28;;;;;;;40.20;17.35;;;;;;;-142.57;100.00;61215.63;4889335;29;20025;-85
2022/10/26 04:58:54;;;;;;;37.78;17.42;;;;;;;-142.57;100.00;61215.63;4881188;29;20037;-86
2022/10/26 05:01:20;;;;;;;32.53;16.48;;;;;;;-142.57;100.00;61215.63;4881484;29;20037;-85
2022/10/26 05:03:49;;;;;;;33.75;17.25;;;;;;;-142.57;100.00;61215.63;4888450;29;20132;-87
2022/10/26 05:06:15;;;;;;;36.00;16.45;;;;;;;-142.57;100.00;61215.63;4884094;29;20096;-89
2022/10/26 05:08:43;;;;;;;43.85;16.73;;;;;;;-142.57;100.00;61215.63;4886874;29;20037;-89
2022/10/26 05:11:09;;;;;;;31.92;16.23;;;;;;;-142.57;100.00;61215.63;4888865;29;20032;-88
2022/10/26 05:13:35;;;;;;;38.30;16.25;;;;;;;-142.57;100.00;61215.63;4890772;29;20585;-89
2022/10/26 05:16:01;;;;;;;33.30;15.57;;;;;;;-142.57;100.00;61215.63;4887133;29;20029;-87
2022/10/26 05:18:26;;;;;;;32.78;15.57;;;;;;;-142.57;100.00;61215.63;4882110;29;20045;-89
2022/10/26 05:20:53;;;;;;;37.08;15.80;;;;;;;-142.57;100.00;61215.63;4882173;29;20081;-89
2022/10/26 05:23:18;;;;;;;40.90;15.40;;;;;;;-142.57;100.00;61215.63;4884497;29;20033;-86
2022/10/26 05:25:45;;;;;;;38.88;15.13;;;;;;;-142.57;100.00;61215.63;4881761;29;20506;-90
2022/10/26 05:28:12;;;;;;;25.90;12.73;;;;;;;-142.57;100.00;61215.63;4894138;23;20132;-89
2022/10/26 05:30:42;;;;;;;31.15;13.10;;;;;;;-142.57;100.00;61215.63;4901845;29;20036;-89
2022/10/26 05:33:09;;;;;;;29.75;14.35;;;;;;;-142.57;100.00;61215.63;4901753;29;20036;-87
2022/10/26 05:35:35;;;;;;;33.15;15.27;;;;;;;-142.57;100.00;61215.63;4900463;29;20033;-89
2022/10/26 05:38:16;;;;;;;32.58;14.68;;;;;;;-142.57;100.00;61215.63;4902139;29;20036;-88
2022/10/26 05:40:52;;;;;;;36.00;14.48;;;;;;;-142.57;100.00;61215.63;4898960;29;20048;-89
2022/10/26 05:43:18;;;;;;;31.67;13.30;;;;;;;-142.57;100.00;61215.63;4897850;29;20502;-89
2022/10/26 05:45:44;;;;;;;37.78;15.50;;;;;;;-142.57;100.00;61215.63;4899043;29;20249;-89
2022/10/26 05:48:10;;;;;;;42.30;15.25;;;;;;;-142.57;100.00;61215.63;4896862;29;20041;-87
2022/10/26 05:50:35;;;;;;;39.10;14.25;;;;;;;-142.57;100.00;61215.63;4893886;29;20045;-86
2022/10/26 05:53:01;;;;;;;31.60;14.05;;;;;;;-142.57;100.00;61215.63;4887374;29;20040;-87
2022/10/26 05:55:27;;;;;;;30.60;13.55;;;;;;;-142.57;100.00;61215.63;4888899;29;20024;-86
2022/10/26 05:57:52;;;;;;;30.85;14.32;;;;;;;-142.57;100.00;61215.63;4886261;29;20491;-89
2022/10/26 06:00:22;;;;;;;34.83;14.40;;;;;;;-142.57;100.00;61215.63;4887242;29;20037;-88
2022/10/26 06:03:06;;;;;;;34.08;15.85;;;;;;;-142.57;100.00;61215.63;4884076;29;20037;-85
2022/10/26 06:05:37;;;;;;;46.88;15.05;;;;;;;-142.57;100.00;61215.63;4888906;29;20029;-85
2022/10/26 06:08:09;;;;;;;34.22;14.20;;;;;;;-142.57;100.00;61215.63;4889671;29;20104;-87
2022/10/26 06:10:34;;;;;;;36.35;14.38;;;;;;;-142.57;100.00;61215.63;4889772;29;20051;-90
2022/10/26 06:13:00;;;;;;;38.03;13.65;;;;;;;-142.57;100.00;61215.63;4887417;29;20407;-87
2022/10/26 06:15:28;;;;;;;31.08;13.70;;;;;;;-142.57;100.00;61215.63;4883894;29;20040;-85
2022/10/26 06:18:23;;;;;;;32.45;13.60;;;;;;;-142.57;100.00;61215.63;4888436;29;20086;-85
2022/10/26 06:20:58;;;;;;;27.67;13.57;;;;;;;-142.57;100.00;61215.63;4892445;29;20393;-88
2022/10/26 06:23:43;;;;;;;36.58;12.30;;;;;;;-142.57;100.00;61215.63;4883288;29;20033;-88
2022/10/26 06:26:18;;;;;;;35.42;12.60;;;;;;;-142.57;100.00;61215.63;4882990;29;20049;-91
2022/10/26 06:28:47;;;;;;;31.17;11.02;;;;;;;-142.57;100.00;61215.63;4883895;29;20136;-89
2022/10/26 06:31:13;;;;;;;30.52;11.05;;;;;;;-142.57;100.00;61215.63;4882466;29;20045;-88
2022/10/26 06:33:39;;;;;;;35.05;11.80;;;;;;;-142.57;100.00;61215.63;4882057;29;20041;-88
2022/10/26 06:36:23;;;;;;;28.77;10.98;;;;;;;-142.57;100.00;61215.63;4882688;29;20048;-90
2022/10/26 06:38:58;;;;;;;32.00;10.57;;;;;;;-142.57;100.00;61215.63;4884632;29;20037;-90
2022/10/26 06:41:25;;;;;;;32.65;11.10;;;;;;;-142.57;100.00;61215.63;4886097;29;20180;-91
2022/10/26 06:43:52;;;;;;;31.10;12.30;;;;;;;-142.57;100.00;61215.63;4868388;29;20414;-90
2022/10/26 06:46:42;;;;;;;28.10;11.95;;;;;;;-142.57;100.00;61215.63;4883009;29;20065;-91
2022/10/26 06:49:49;;;;;;;36.70;11.27;;;;;;;-142.57;100.00;61215.63;4883376;29;20048;-91
2022/10/26 06:52:34;;;;;;;30.27;9.18;;;;;;;-142.57;100.00;61215.63;4855891;29;20140;-90
2022/10/26 06:55:00;;;;;;;35.45;9.80;;;;;;;-142.57;100.00;61215.63;4882305;29;20048;-90
2022/10/26 06:57:33;;;;;;;26.67;9.20;;;;;;;-142.57;100.00;61215.63;4890149;29;20375;-90
2022/10/26 07:00:00;;;;;;;20.42;8.90;;;;;;;-142.57;100.00;61215.63;4900718;29;20032;-89
2022/10/26 07:02:25;;;;;;;27.52;9.98;;;;;;;-142.57;100.00;61215.63;4884920;29;20071;-89
2022/10/26 07:04:51;;;;;;;30.52;9.43;;;;;;;-142.57;100.00;61215.63;4903112;29;20112;-89
2022/10/26 07:07:22;;;;;;;21.73;8.50;;;;;;;-142.57;100.00;61215.63;4901956;29;20073;-88
2022/10/26 07:09:48;;;;;;;24.40;8.30;;;;;;;-142.57;100.00;61215.63;4910418;29;20058;-90
2022/10/26 07:12:14;;;;;;;29.40;8.43;;;;;;;-142.57;100.00;61215.63;4909049;29;20032;-92
2022/10/26 07:14:39;;;;;;;30.25;8.85;;;;;;;-142.57;100.00;61215.63;4907426;29;20068;-89
2022/10/26 07:17:05;;;;;;;30.88;9.13;;;;;;;-142.57;100.00;61215.63;4902362;29;20119;-90
2022/10/26 07:19:31;;;;;;;25.30;8.02;;;;;;;-142.57;100.00;61215.63;4901649;29;20482;-89
2022/10/26 07:21:59;;;;;;;20.77;8.10;;;;;;;-142.57;100.00;61215.63;4903278;29;20083;-90
2022/10/26 07:24:25;;;;;;;25.45;9.02;;;;;;;-142.57;100.00;61215.63;4904528;29;20036;-90
2022/10/26 07:26:54;;;;;;;23.40;8.63;;;;;;;-142.57;100.00;61215.63;4919398;29;20063;-90
2022/10/26 07:29:19;;;;;;;33.53;10.35;;;;;;;-142.57;100.00;61215.63;4918807;29;20472;-90
2022/10/26 07:31:45;;;;;;;28.27;9.95;;;;;;;-142.57;100.00;61215.63;4919671;29;20197;-90
2022/10/26 07:34:10;;;;;;;26.35;9.52;;;;;;;-142.57;100.00;61215.63;4919436;29;20040;-89
2022/10/26 07:36:36;;;;;;;30.08;9.88;;;;;;;-142.57;100.00;61215.63;4921787;29;20615;-91
2022/10/26 08:00:50;;;;;;;33.83;13.07;;;;;;;-142.57;100.00;61215.63;5484484;23;20049;-92
2022/10/26 08:03:19;;;;;;;36.88;13.90;;;;;;;-142.57;100.00;61215.63;4907988;29;20049;-93
2022/10/26 08:05:59;;;;;;;37.65;14.25;;;;;;;-142.57;100.00;61215.63;4911306;29;20125;-93
2022/10/26 08:08:28;;;;;;;28.90;13.63;;;;;;;-142.57;100.00;61215.63;4911083;29;20044;-91
2022/10/26 08:11:36;;;;;;;;;;;;;;;;;;;;;
2022/10/26 08:14:06;;;;;;;31.88;13.75;;;;;;;-142.57;100.00;61215.63;4911201;29;20040;-91
2022/10/26 08:16:45;;;;;;;33.53;13.05;;;;;;;-142.57;100.00;61215.63;4911898;29;20068;-92
2022/10/26 08:22:48;;;;;;;38.70;13.27;;;;;;;-142.57;100.00;61215.63;4910785;29;20060;-93
2022/10/26 08:26:03;;;;;;;31.50;13.25;;;;;;;-142.57;100.00;61215.63;4896996;29;20044;-92
2022/10/26 08:29:31;;;;;;;36.92;14.90;;;;;;;-142.57;100.00;61215.63;4916290;29;20036;-92
2022/10/26 08:32:05;;;;;;;37.28;15.02;;;;;;;-142.57;100.00;61215.63;4910512;29;20044;-93
2022/10/26 08:34:55;;;;;;;35.92;15.77;;;;;;;-142.57;100.00;61215.63;5051234;23;20052;-94
2022/10/26 08:37:29;;;;;;;36.75;16.52;;;;;;;-142.57;100.00;61215.63;4913940;29;20104;-94
2022/10/26 08:40:12;;;;;;;37.97;16.65;;;;;;;-142.57;100.00;61215.63;4915546;29;20048;-91
2022/10/26 08:42:56;;;;;;;32.72;15.77;;;;;;;-142.57;100.00;61215.63;4904726;29;20055;-92
2022/10/26 08:46:08;;;;;;;50.08;19.73;;;;;;;-142.57;100.00;61215.63;4903469;29;20052;-91
2022/10/26 08:49:24;;;;;;;;;;;;;;;;;;;;;
2022/10/26 08:52:07;;;;;;;49.65;21.42;;;;;;;-142.57;100.00;61215.63;4918165;29;20056;-92
2022/10/26 08:55:10;;;;;;;44.70;22.43;;;;;;;-142.57;100.00;61215.63;4919093;29;20041;-91
2022/10/26 08:58:10;;;;;;;51.47;21.92;;;;;;;-142.57;100.00;61215.63;4905374;29;20076;-92
2022/10/26 09:01:24;;;;;;;51.80;23.55;;;;;;;-142.57;100.00;61215.63;4919048;29;20407;-92
2022/10/26 09:03:59;;;;;;;46.85;22.92;;;;;;;-142.57;100.00;61215.63;4913099;29;20036;-91
2022/10/26 09:07:01;;;;;;;55.45;27.27;;;;;;;-142.57;100.00;61215.63;4911950;29;20048;-90
2022/10/26 09:10:16;;;;;;;56.75;28.80;;;;;;;-142.57;100.00;61215.63;4915742;29;20083;-91
2022/10/26 09:13:23;;;;;;;53.90;25.17;;;;;;;-142.57;100.00;61215.63;4913487;29;20052;-93
2022/10/26 09:19:46;;;;;;;;;;;;;;;;;;;;;
2022/10/26 09:22:59;;;;;;;;;;;;;;;;;;;;;
2022/10/26 09:29:05;;;;;;;53.85;25.05;;;;;;;-142.57;100.00;61215.63;4959540;23;20064;-91
2022/10/26 09:32:48;;;;;;;52.95;23.83;;;;;;;-142.57;100.00;61215.63;4918047;29;20086;-90
2022/10/26 09:35:48;;;;;;;45.20;23.65;;;;;;;-142.57;100.00;61215.63;4907677;29;20052;-91
2022/10/26 09:38:34;;;;;;;51.50;22.95;;;;;;;-142.57;100.00;61215.63;4900158;29;20037;-91
2022/10/26 09:41:12;;;;;;;44.35;22.80;;;;;;;-142.57;100.00;61215.63;4915817;29;20041;-92
2022/10/26 09:44:28;;;;;;;45.22;22.17;;;;;;;-142.57;100.00;61215.63;4920675;29;20104;-92
2022/10/26 09:56:04;;;;;;;51.17;24.88;;;;;;;-142.57;100.00;61215.63;2577475;23;20057;-92
2022/10/26 09:59:48;;;;;;;50.30;24.90;;;;;;;-142.57;100.00;61215.63;4918978;29;20048;-92
2022/10/26 10:02:48;;;;;;;;;;;;;;;;;;;;;
2022/10/26 10:05:38;;;;;;;47.17;25.17;;;;;;;-142.57;100.00;61215.63;5001219;23;20063;-91
2022/10/26 10:09:39;;;;;;;;;;;;;;;;;;;;;
2022/10/26 10:13:03;;;;;;;;;;;;;;;;;;;;;
2022/10/26 11:07:18;;;;;;;43.88;22.52;;;;;;;-142.57;100.00;61215.63;4647831;27;20049;-86
2022/10/26 12:29:43;;;;;;;47.42;19.45;;;;;;;-142.57;100.00;61215.63;5210794;23;20049;-83
2022/10/26 12:54:24;;;;;;;39.03;18.40;;;;;;;-142.57;100.00;61215.63;5504110;23;20036;-84
2022/10/26 12:57:37;;;;;;;40.30;18.42;;;;;;;-142.57;100.00;61215.63;4902511;29;20037;-83
2022/10/26 13:00:12;;;;;;;47.08;19.27;;;;;;;-142.57;100.00;61215.63;4914676;29;20048;-85
2022/10/26 13:03:05;;;;;;;;;;;;;;;-142.57;100.00;61215.63;4916720;29;20057;-85
2022/10/26 13:05:56;;;;;;;49.97;18.40;;;;;;;-142.57;100.00;61215.63;4912059;29;19927;-85
2022/10/26 13:09:08;;;;;;;37.60;18.30;;;;;;;-142.57;100.00;61215.63;4909493;29;20104;-86
2022/10/26 13:11:42;;;;;;;44.97;18.45;;;;;;;-142.57;100.00;61215.63;4906727;29;20076;-85
2022/10/26 13:14:28;;;;;;;41.75;17.42;;;;;;;-142.57;100.00;61215.63;4914467;29;20052;-85
2022/10/26 13:17:05;;;;;;;43.65;15.68;;;;;;;-142.57;100.00;61215.63;4918653;29;20049;-84
2022/10/26 13:19:55;;;;;;;31.08;15.30;;;;;;;-142.57;100.00;61215.63;4896312;29;20643;-86
2022/10/26 13:22:45;;;;;;;38.00;15.73;;;;;;;-142.57;100.00;61215.63;4912432;29;20049;-83
2022/10/26 13:25:28;;;;;;;35.15;15.15;;;;;;;-142.57;100.00;61215.63;4918969;29;20082;-82
2022/10/26 13:28:08;;;;;;;39.95;16.25;;;;;;;-142.57;100.00;61215.63;4912814;29;20072;-84
2022/10/26 13:31:04;;;;;;;29.88;15.27;;;;;;;-142.57;100.00;61215.63;4917828;29;20041;-86
2022/10/26 13:33:42;;;;;;;36.20;13.98;;;;;;;-142.57;100.00;61215.63;4887079;29;20066;-83
2022/10/26 13:36:49;;;;;;;40.75;14.27;;;;;;;-142.57;100.00;61215.63;4914868;29;20056;-85
2022/10/26 13:39:25;;;;;;;33.65;14.40;;;;;;;-142.57;100.00;61215.63;4881904;29;20144;-82
2022/10/26 13:41:53;;;;;;;40.47;14.80;;;;;;;-142.57;100.00;61215.63;4860100;29;20049;-85
2022/10/26 13:44:53;;;;;;;29.80;13.63;;;;;;;-142.57;100.00;61215.63;4912709;29;20056;-84
2022/10/26 13:55:32;;;;;;;46.45;16.58;;;;;;;-142.57;100.00;61215.63;4921516;29;20048;-83
2022/10/26 13:58:51;;;;;;;36.58;15.38;;;;;;;-142.57;100.00;61215.63;4927106;23;20064;-85
2022/10/26 14:02:35;;;;;;;37.42;14.98;;;;;;;-142.57;100.00;61215.63;4921530;29;20033;-83
2022/10/26 14:05:52;;;;;;;41.10;15.02;;;;;;;-142.57;100.00;61215.63;4919896;29;20056;-84
2022/10/26 14:08:42;;;;;;;39.72;14.05;;;;;;;-142.57;100.00;61215.63;4917143;29;20061;-84
2022/10/26 14:11:22;;;;;;;36.63;14.88;;;;;;;-142.57;100.00;61215.63;4917850;29;20045;-84
2022/10/26 14:14:28;;;;;;;33.30;12.60;;;;;;;-142.57;100.00;61215.63;4905220;29;20037;-84
2022/10/26 14:17:14;;;;;;;34.72;13.57;;;;;;;-142.57;100.00;61215.63;4913319;29;20035;-83
2022/10/26 14:19:52;;;;;;;35.70;13.30;;;;;;;-142.57;100.00;61215.63;4900685;29;20107;-84
2022/10/26 14:22:22;;;;;;;36.30;14.30;;;;;;;-142.57;100.00;61215.63;4912606;29;20036;-83
2022/10/26 14:24:54;;;;;;;35.45;14.68;;;;;;;-142.57;100.00;61215.63;4908743;29;20123;-81
2022/10/26 14:27:32;;;;;;;40.55;14.43;;;;;;;-142.57;100.00;61215.63;4911623;29;20041;-84
2022/10/26 14:30:44;;;;;;;40.75;13.68;;;;;;;-142.57;100.00;61215.63;4907326;29;20068;-84
2022/10/26 14:37:15;;;;;;;35.33;14.50;;;;;;;-142.57;100.00;61215.63;4922824;29;20040;-84
2022/10/26 14:40:18;;;;;;;40.25;16.50;;;;;;;-142.57;100.00;61215.63;4920310;29;20085;-83
2022/10/26 14:43:22;;;;;;;39.15;16.58;;;;;;;-142.57;100.00;61215.63;4920750;29;20048;-85
2022/10/26 14:46:21;;;;;;;42.85;16.00;;;;;;;-142.57;100.00;61215.63;4908114;29;20056;-85
2022/10/26 14:56:55;;;;;;;35.90;14.25;;;;;;;-142.57;100.00;61215.63;4904706;29;20045;-83
2022/10/26 15:00:02;;;;;;;44.47;16.42;;;;;;;-142.57;100.00;61215.63;4904574;29;20045;-85
2022/10/26 15:02:42;;;;;;;44.03;18.35;;;;;;;-142.57;100.00;61215.63;4903940;29;20088;-83
2022/10/26 15:05:37;;;;;;;39.90;16.45;;;;;;;-142.57;100.00;61215.63;4883687;29;20052;-87
2022/10/26 15:08:43;;;;;;;36.42;16.17;;;;;;;-142.57;100.00;61215.63;4903429;29;20032;-86
2022/10/26 15:12:01;;;;;;;41.90;15.02;;;;;;;-142.57;100.00;61215.63;4898823;29;20089;-85
2022/10/26 22:39:03;;;;;;;40.50;19.63;;;;;;;-142.57;100.00;61215.63;2786605;23;20036;-86
2022/10/26 22:41:51;;;;;;;57.92;19.98;;;;;;;-142.57;100.00;61215.63;4923037;29;20033;-86
2022/10/26 23:26:45;;;;;;;64.00;22.80;;;;;;;-142.57;100.00;61215.63;4022346;27;20049;-82
2022/10/26 23:33:23;;;;;;;51.72;21.73;;;;;;;-142.57;100.00;61215.63;4902086;29;20029;-82
2022/10/26 23:36:21;;;;;;;49.70;23.20;;;;;;;-142.57;100.00;61215.63;4902368;29;20082;-84
2022/10/26 23:39:36;;;;;;;49.72;21.27;;;;;;;-142.57;100.00;61215.63;4936840;23;20495;-83